createdAt,value
2018-08-11T00:00:17.590Z,96385.00
2018-08-11T00:00:49.657Z,96384.00
2018-08-11T00:01:21.734Z,96389.00
2018-08-11T00:01:53.781Z,96388.00
2018-08-11T00:02:25.855Z,96386.00
2018-08-11T00:02:57.948Z,96387.00
2018-08-11T00:03:29.985Z,96389.00
2018-08-11T00:04:02.035Z,96388.00
2018-08-11T00:04:34.108Z,96388.00
2018-08-11T00:05:06.165Z,96384.00
2018-08-11T00:05:38.252Z,96391.00
2018-08-11T00:06:10.309Z,96385.00
2018-08-11T00:06:42.361Z,96386.00
2018-08-11T00:07:14.492Z,96388.00
2018-08-11T00:07:46.557Z,96391.00
2018-08-11T00:08:18.672Z,96389.00
2018-08-11T00:08:50.720Z,96383.00
2018-08-11T00:09:22.777Z,96382.00
2018-08-11T00:09:54.987Z,96389.00
2018-08-11T00:10:27.045Z,96388.00
2018-08-11T00:10:59.120Z,96386.00
2018-08-11T00:11:31.205Z,96379.00
2018-08-11T00:12:03.273Z,96380.00
2018-08-11T00:12:35.331Z,96383.00
2018-08-11T00:13:07.406Z,96381.00
2018-08-11T00:13:39.466Z,96384.00
2018-08-11T00:14:11.532Z,96384.00
2018-08-11T00:14:43.785Z,96379.00
2018-08-11T00:15:15.945Z,96381.00
2018-08-11T00:15:47.987Z,96380.00
2018-08-11T00:16:20.050Z,96377.00
2018-08-11T00:16:52.112Z,96374.00
2018-08-11T00:17:24.179Z,96373.00
2018-08-11T00:17:56.246Z,96379.00
2018-08-11T00:18:28.325Z,96379.00
2018-08-11T00:19:00.410Z,96380.00
2018-08-11T00:19:32.492Z,96376.00
2018-08-11T00:20:04.550Z,96381.00
2018-08-11T00:20:36.621Z,96375.00
2018-08-11T00:21:08.693Z,96377.00
2018-08-11T00:21:40.760Z,96380.00
2018-08-11T00:22:12.827Z,96374.00
2018-08-11T00:22:44.893Z,96378.00
2018-08-11T00:23:16.968Z,96377.00
2018-08-11T00:23:49.029Z,96380.00
2018-08-11T00:24:21.126Z,96379.00
2018-08-11T00:24:53.180Z,96381.00
2018-08-11T00:25:25.255Z,96380.00
2018-08-11T00:25:57.344Z,96380.00
2018-08-11T00:26:29.509Z,96382.00
2018-08-11T00:27:01.584Z,96376.00
2018-08-11T00:27:33.636Z,96381.00
2018-08-11T00:28:05.705Z,96379.00
2018-08-11T00:28:37.840Z,96380.00
2018-08-11T00:29:09.925Z,96382.00
2018-08-11T00:29:41.990Z,96383.00
2018-08-11T00:30:14.061Z,96381.00
2018-08-11T00:30:46.126Z,96386.00
2018-08-11T00:31:18.200Z,96381.00
2018-08-11T00:31:50.345Z,96383.00
2018-08-11T00:32:22.386Z,96386.00
2018-08-11T00:32:54.459Z,96382.00
2018-08-11T00:33:26.525Z,96384.00
2018-08-11T00:33:58.587Z,96382.00
2018-08-11T00:34:30.640Z,96379.00
2018-08-11T00:35:02.697Z,96380.00
2018-08-11T00:35:34.765Z,96383.00
2018-08-11T00:36:06.819Z,96384.00
2018-08-11T00:36:38.880Z,96379.00
2018-08-11T00:37:10.941Z,96382.00
2018-08-11T00:37:42.998Z,96379.00
2018-08-11T00:38:15.067Z,96384.00
2018-08-11T00:38:47.124Z,96380.00
2018-08-11T00:39:19.200Z,96384.00
2018-08-11T00:39:51.268Z,96385.00
2018-08-11T00:40:23.333Z,96386.00
2018-08-11T00:40:55.404Z,96383.00
2018-08-11T00:41:27.462Z,96384.00
2018-08-11T00:41:59.523Z,96382.00
2018-08-11T00:42:31.577Z,96380.00
2018-08-11T00:43:03.640Z,96381.00
2018-08-11T00:43:35.780Z,96383.00
2018-08-11T00:44:07.829Z,96377.00
2018-08-11T00:44:39.903Z,96378.00
2018-08-11T00:45:11.967Z,96381.00
2018-08-11T00:45:44.022Z,96378.00
2018-08-11T00:46:16.099Z,96377.00
2018-08-11T00:46:48.182Z,96374.00
2018-08-11T00:47:20.237Z,96376.00
2018-08-11T00:47:52.327Z,96378.00
2018-08-11T00:48:24.390Z,96378.00
2018-08-11T00:48:56.516Z,96373.00
2018-08-11T00:49:28.604Z,96371.00
2018-08-11T00:50:00.631Z,96376.00
2018-08-11T00:50:32.773Z,96371.00
2018-08-11T00:51:04.850Z,96370.00
2018-08-11T00:51:36.945Z,96373.00
2018-08-11T00:52:09.018Z,96373.00
2018-08-11T00:52:41.077Z,96371.00
2018-08-11T00:53:13.133Z,96368.00
2018-08-11T00:53:45.210Z,96371.00
2018-08-11T00:54:17.280Z,96369.00
2018-08-11T00:54:49.350Z,96369.00
2018-08-11T00:55:21.420Z,96371.00
2018-08-11T00:55:53.483Z,96368.00
2018-08-11T00:56:25.642Z,96371.00
2018-08-11T00:56:57.697Z,96368.00
2018-08-11T00:57:29.761Z,96367.00
2018-08-11T00:58:01.834Z,96366.00
2018-08-11T00:58:33.947Z,96364.00
2018-08-11T00:59:06.018Z,96364.00
2018-08-11T00:59:38.128Z,96366.00
2018-08-11T01:00:10.200Z,96364.00
2018-08-11T01:00:42.254Z,96368.00
2018-08-11T01:01:14.331Z,96364.00
2018-08-11T01:01:46.398Z,96369.00
2018-08-11T01:02:18.479Z,96367.00
2018-08-11T01:02:50.533Z,96367.00
2018-08-11T01:03:22.592Z,96363.00
2018-08-11T01:03:54.663Z,96366.00
2018-08-11T01:04:26.738Z,96366.00
2018-08-11T01:04:58.811Z,96366.00
2018-08-11T01:05:30.869Z,96365.00
2018-08-11T01:06:02.974Z,96367.00
2018-08-11T01:06:35.015Z,96369.00
2018-08-11T01:07:07.093Z,96369.00
2018-08-11T01:07:39.165Z,96369.00
2018-08-11T01:08:11.234Z,96363.00
2018-08-11T01:08:43.360Z,96362.00
2018-08-11T01:09:15.418Z,96363.00
2018-08-11T01:09:47.478Z,96360.00
2018-08-11T01:10:19.552Z,96366.00
2018-08-11T01:10:51.630Z,96362.00
2018-08-11T01:11:23.808Z,96361.00
2018-08-11T01:11:55.866Z,96366.00
2018-08-11T01:12:27.938Z,96363.00
2018-08-11T01:13:00.009Z,96360.00
2018-08-11T01:13:32.062Z,96359.00
2018-08-11T01:14:04.126Z,96361.00
2018-08-11T01:14:36.189Z,96360.00
2018-08-11T01:15:08.278Z,96361.00
2018-08-11T01:15:40.329Z,96359.00
2018-08-11T01:16:12.409Z,96361.00
2018-08-11T01:16:44.478Z,96361.00
2018-08-11T01:17:16.541Z,96361.00
2018-08-11T01:17:48.607Z,96359.00
2018-08-11T01:18:20.702Z,96357.00
2018-08-11T01:18:52.761Z,96363.00
2018-08-11T01:19:24.840Z,96362.00
2018-08-11T01:19:56.935Z,96366.00
2018-08-11T01:20:28.998Z,96358.00
2018-08-11T01:21:01.057Z,96361.00
2018-08-11T01:21:33.130Z,96362.00
2018-08-11T01:22:05.220Z,96361.00
2018-08-11T01:22:37.288Z,96363.00
2018-08-11T01:23:09.346Z,96361.00
2018-08-11T01:23:41.408Z,96359.00
2018-08-11T01:24:13.501Z,96361.00
2018-08-11T01:24:45.574Z,96363.00
2018-08-11T01:25:17.642Z,96359.00
2018-08-11T01:25:49.717Z,96357.00
2018-08-11T01:26:21.784Z,96357.00
2018-08-11T01:26:53.849Z,96356.00
2018-08-11T01:27:25.912Z,96356.00
2018-08-11T01:27:57.973Z,96356.00
2018-08-11T01:28:30.052Z,96360.00
2018-08-11T01:29:02.112Z,96358.00
2018-08-11T01:29:34.198Z,96360.00
2018-08-11T01:30:06.242Z,96358.00
2018-08-11T01:30:38.332Z,96362.00
2018-08-11T01:31:10.386Z,96359.00
2018-08-11T01:31:42.477Z,96359.00
2018-08-11T01:32:14.519Z,96359.00
2018-08-11T01:32:46.589Z,96357.00
2018-08-11T01:33:18.641Z,96360.00
2018-08-11T01:33:50.714Z,96362.00
2018-08-11T01:34:22.777Z,96360.00
2018-08-11T01:34:54.849Z,96363.00
2018-08-11T01:35:26.926Z,96361.00
2018-08-11T01:35:59.010Z,96361.00
2018-08-11T01:36:31.068Z,96366.00
2018-08-11T01:37:03.128Z,96362.00
2018-08-11T01:37:35.257Z,96362.00
2018-08-11T01:38:07.316Z,96362.00
2018-08-11T01:38:39.405Z,96362.00
2018-08-11T01:39:11.472Z,96365.00
2018-08-11T01:39:43.536Z,96356.00
2018-08-11T01:40:15.603Z,96363.00
2018-08-11T01:40:47.658Z,96359.00
2018-08-11T01:41:19.721Z,96362.00
2018-08-11T01:41:51.790Z,96364.00
2018-08-11T01:42:23.853Z,96364.00
2018-08-11T01:42:55.916Z,96367.00
2018-08-11T01:43:27.984Z,96364.00
2018-08-11T01:44:00.066Z,96363.00
2018-08-11T01:44:32.130Z,96361.00
2018-08-11T01:45:04.194Z,96364.00
2018-08-11T01:45:36.317Z,96368.00
2018-08-11T01:46:08.388Z,96365.00
2018-08-11T01:46:40.467Z,96369.00
2018-08-11T01:47:12.525Z,96366.00
2018-08-11T01:47:44.622Z,96366.00
2018-08-11T01:48:16.711Z,96363.00
2018-08-11T01:48:48.768Z,96363.00
2018-08-11T01:49:20.849Z,96361.00
2018-08-11T01:49:52.900Z,96362.00
2018-08-11T01:50:25.016Z,96364.00
2018-08-11T01:50:57.056Z,96362.00
2018-08-11T01:51:29.110Z,96360.00
2018-08-11T01:52:01.237Z,96358.00
2018-08-11T01:52:33.297Z,96359.00
2018-08-11T01:53:05.365Z,96359.00
2018-08-11T01:53:37.438Z,96358.00
2018-08-11T01:54:09.500Z,96363.00
2018-08-11T01:54:41.569Z,96359.00
2018-08-11T01:55:13.649Z,96361.00
2018-08-11T01:55:45.705Z,96362.00
2018-08-11T01:56:17.780Z,96363.00
2018-08-11T01:56:49.844Z,96360.00
2018-08-11T01:57:21.989Z,96363.00
2018-08-11T01:57:54.247Z,96362.00
2018-08-11T01:58:26.581Z,96361.00
2018-08-11T01:58:58.800Z,96355.00
2018-08-11T01:59:30.852Z,96357.00
2018-08-11T02:00:02.926Z,96353.00
2018-08-11T02:00:34.993Z,96357.00
2018-08-11T02:01:07.068Z,96358.00
2018-08-11T02:01:39.125Z,96357.00
2018-08-11T02:02:11.272Z,96358.00
2018-08-11T02:02:43.349Z,96355.00
2018-08-11T02:03:15.412Z,96348.00
2018-08-11T02:03:47.471Z,96347.00
2018-08-11T02:04:19.537Z,96343.00
2018-08-11T02:04:51.586Z,96342.00
2018-08-11T02:05:23.653Z,96345.00
2018-08-11T02:05:55.718Z,96343.00
2018-08-11T02:06:27.779Z,96346.00
2018-08-11T02:06:59.860Z,96353.00
2018-08-11T02:07:31.898Z,96352.00
2018-08-11T02:08:03.969Z,96350.00
2018-08-11T02:08:36.026Z,96351.00
2018-08-11T02:09:08.089Z,96352.00
2018-08-11T02:09:40.149Z,96349.00
2018-08-11T02:10:12.251Z,96348.00
2018-08-11T02:10:44.302Z,96345.00
2018-08-11T02:11:16.408Z,96348.00
2018-08-11T02:11:48.427Z,96346.00
2018-08-11T02:12:20.489Z,96347.00
2018-08-11T02:12:52.606Z,96344.00
2018-08-11T02:13:24.665Z,96342.00
2018-08-11T02:13:56.730Z,96347.00
2018-08-11T02:14:28.860Z,96343.00
2018-08-11T02:15:00.913Z,96347.00
2018-08-11T02:15:32.992Z,96344.00
2018-08-11T02:16:05.065Z,96343.00
2018-08-11T02:16:37.132Z,96341.00
2018-08-11T02:17:09.205Z,96344.00
2018-08-11T02:17:41.274Z,96345.00
2018-08-11T02:18:13.331Z,96347.00
2018-08-11T02:18:45.400Z,96346.00
2018-08-11T02:19:17.459Z,96345.00
2018-08-11T02:19:49.582Z,96344.00
2018-08-11T02:20:21.646Z,96342.00
2018-08-11T02:20:53.740Z,96348.00
2018-08-11T02:21:25.797Z,96348.00
2018-08-11T02:21:57.869Z,96345.00
2018-08-11T02:22:29.928Z,96342.00
2018-08-11T02:23:01.995Z,96342.00
2018-08-11T02:23:34.054Z,96340.00
2018-08-11T02:24:06.123Z,96344.00
2018-08-11T02:24:38.190Z,96339.00
2018-08-11T02:25:10.256Z,96339.00
2018-08-11T02:25:42.317Z,96343.00
2018-08-11T02:26:14.376Z,96347.00
2018-08-11T02:26:46.437Z,96337.00
2018-08-11T02:27:18.522Z,96332.00
2018-08-11T02:27:50.597Z,96337.00
2018-08-11T02:28:22.661Z,96331.00
2018-08-11T02:28:54.728Z,96330.00
2018-08-11T02:29:26.813Z,96333.00
2018-08-11T02:29:58.869Z,96332.00
2018-08-11T02:30:30.972Z,96330.00
2018-08-11T02:31:03.061Z,96333.00
2018-08-11T02:31:35.125Z,96339.00
2018-08-11T02:32:07.195Z,96330.00
2018-08-11T02:32:39.266Z,96330.00
2018-08-11T02:33:11.334Z,96326.00
2018-08-11T02:33:43.394Z,96325.00
2018-08-11T02:34:15.513Z,96330.00
2018-08-11T02:34:47.518Z,96326.00
2018-08-11T02:35:19.598Z,96328.00
2018-08-11T02:35:51.671Z,96329.00
2018-08-11T02:36:23.733Z,96326.00
2018-08-11T02:36:55.795Z,96331.00
2018-08-11T02:37:27.869Z,96326.00
2018-08-11T02:37:59.937Z,96328.00
2018-08-11T02:38:31.982Z,96322.00
2018-08-11T02:39:04.047Z,96331.00
2018-08-11T02:39:36.111Z,96325.00
2018-08-11T02:40:08.171Z,96332.00
2018-08-11T02:40:40.243Z,96330.00
2018-08-11T02:41:12.361Z,96333.00
2018-08-11T02:41:44.413Z,96330.00
2018-08-11T02:42:16.462Z,96328.00
2018-08-11T02:42:48.518Z,96330.00
2018-08-11T02:43:20.588Z,96333.00
2018-08-11T02:43:52.665Z,96326.00
2018-08-11T02:44:24.723Z,96329.00
2018-08-11T02:44:56.829Z,96331.00
2018-08-11T02:45:28.888Z,96325.00
2018-08-11T02:46:00.954Z,96325.00
2018-08-11T02:46:33.030Z,96331.00
2018-08-11T02:47:05.095Z,96325.00
2018-08-11T02:47:37.176Z,96328.00
2018-08-11T02:48:09.339Z,96322.00
2018-08-11T02:48:41.369Z,96330.00
2018-08-11T02:49:13.434Z,96324.00
2018-08-11T02:49:45.509Z,96327.00
2018-08-11T02:50:17.573Z,96326.00
2018-08-11T02:50:49.632Z,96326.00
2018-08-11T02:51:21.704Z,96326.00
2018-08-11T02:51:53.758Z,96329.00
2018-08-11T02:52:25.848Z,96328.00
2018-08-11T02:52:57.890Z,96325.00
2018-08-11T02:53:29.959Z,96325.00
2018-08-11T02:54:02.025Z,96324.00
2018-08-11T02:54:34.094Z,96326.00
2018-08-11T02:55:06.144Z,96324.00
2018-08-11T02:55:38.222Z,96323.00
2018-08-11T02:56:10.279Z,96322.00
2018-08-11T02:56:42.346Z,96327.00
2018-08-11T02:57:14.406Z,96325.00
2018-08-11T02:57:46.481Z,96323.00
2018-08-11T02:58:18.621Z,96322.00
2018-08-11T02:58:50.632Z,96321.00
2018-08-11T02:59:22.701Z,96322.00
2018-08-11T02:59:54.755Z,96319.00
2018-08-11T03:00:26.827Z,96323.00
2018-08-11T03:00:58.888Z,96319.00
2018-08-11T03:01:30.935Z,96316.00
2018-08-11T03:02:02.998Z,96315.00
2018-08-11T03:02:35.163Z,96319.00
2018-08-11T03:03:07.145Z,96318.00
2018-08-11T03:03:39.201Z,96317.00
2018-08-11T03:04:11.263Z,96315.00
2018-08-11T03:04:43.333Z,96317.00
2018-08-11T03:05:15.398Z,96315.00
2018-08-11T03:05:47.465Z,96314.00
2018-08-11T03:06:19.568Z,96319.00
2018-08-11T03:06:51.637Z,96321.00
2018-08-11T03:07:23.697Z,96316.00
2018-08-11T03:07:55.770Z,96313.00
2018-08-11T03:08:27.841Z,96317.00
2018-08-11T03:08:59.914Z,96320.00
2018-08-11T03:09:31.970Z,96320.00
2018-08-11T03:10:04.022Z,96319.00
2018-08-11T03:10:36.078Z,96321.00
2018-08-11T03:11:08.148Z,96320.00
2018-08-11T03:11:40.211Z,96321.00
2018-08-11T03:12:12.272Z,96322.00
2018-08-11T03:12:44.334Z,96324.00
2018-08-11T03:13:16.403Z,96326.00
2018-08-11T03:13:48.457Z,96324.00
2018-08-11T03:14:20.583Z,96327.00
2018-08-11T03:14:52.649Z,96324.00
2018-08-11T03:15:24.725Z,96321.00
2018-08-11T03:15:56.792Z,96325.00
2018-08-11T03:16:28.886Z,96320.00
2018-08-11T03:17:00.944Z,96325.00
2018-08-11T03:17:33.009Z,96318.00
2018-08-11T03:18:05.085Z,96321.00
2018-08-11T03:18:37.134Z,96317.00
2018-08-11T03:19:09.208Z,96318.00
2018-08-11T03:19:41.264Z,96318.00
2018-08-11T03:20:13.318Z,96324.00
2018-08-11T03:20:45.391Z,96321.00
2018-08-11T03:21:17.440Z,96318.00
2018-08-11T03:21:49.494Z,96317.00
2018-08-11T03:22:21.561Z,96318.00
2018-08-11T03:22:53.616Z,96319.00
2018-08-11T03:23:25.697Z,96319.00
2018-08-11T03:23:57.826Z,96316.00
2018-08-11T03:24:30.374Z,96316.00
2018-08-11T03:25:02.848Z,96318.00
2018-08-11T03:25:34.905Z,96318.00
2018-08-11T03:26:06.974Z,96321.00
2018-08-11T03:26:39.052Z,96322.00
2018-08-11T03:27:11.117Z,96327.00
2018-08-11T03:27:43.179Z,96323.00
2018-08-11T03:28:15.244Z,96324.00
2018-08-11T03:28:47.348Z,96324.00
2018-08-11T03:29:19.398Z,96322.00
2018-08-11T03:29:51.468Z,96322.00
2018-08-11T03:30:23.524Z,96319.00
2018-08-11T03:30:55.596Z,96320.00
2018-08-11T03:31:27.713Z,96316.00
2018-08-11T03:31:59.770Z,96319.00
2018-08-11T03:32:31.843Z,96321.00
2018-08-11T03:33:03.929Z,96317.00
2018-08-11T03:33:35.982Z,96323.00
2018-08-11T03:34:08.047Z,96323.00
2018-08-11T03:34:40.104Z,96324.00
2018-08-11T03:35:12.157Z,96317.00
2018-08-11T03:35:44.219Z,96321.00
2018-08-11T03:36:16.288Z,96322.00
2018-08-11T03:36:48.345Z,96321.00
2018-08-11T03:37:20.425Z,96322.00
2018-08-11T03:37:52.486Z,96320.00
2018-08-11T03:38:24.546Z,96321.00
2018-08-11T03:38:56.608Z,96322.00
2018-08-11T03:39:28.677Z,96321.00
2018-08-11T03:40:00.744Z,96322.00
2018-08-11T03:40:32.848Z,96321.00
2018-08-11T03:41:04.915Z,96321.00
2018-08-11T03:41:36.958Z,96320.00
2018-08-11T03:42:09.017Z,96324.00
2018-08-11T03:42:41.093Z,96322.00
2018-08-11T03:43:13.162Z,96318.00
2018-08-11T03:43:45.217Z,96319.00
2018-08-11T03:44:17.280Z,96327.00
2018-08-11T03:44:49.354Z,96322.00
2018-08-11T03:45:21.429Z,96325.00
2018-08-11T03:45:53.524Z,96326.00
2018-08-11T03:46:25.625Z,96327.00
2018-08-11T03:46:57.661Z,96329.00
2018-08-11T03:47:29.743Z,96327.00
2018-08-11T03:48:01.806Z,96332.00
2018-08-11T03:48:33.872Z,96324.00
2018-08-11T03:49:05.938Z,96327.00
2018-08-11T03:49:37.994Z,96325.00
2018-08-11T03:50:10.072Z,96328.00
2018-08-11T03:50:42.149Z,96326.00
2018-08-11T03:51:14.224Z,96328.00
2018-08-11T03:51:46.284Z,96330.00
2018-08-11T03:52:18.357Z,96329.00
2018-08-11T03:52:50.415Z,96332.00
2018-08-11T03:53:22.481Z,96339.00
2018-08-11T03:53:54.540Z,96336.00
2018-08-11T03:54:26.610Z,96335.00
2018-08-11T03:54:58.662Z,96340.00
2018-08-11T03:55:30.753Z,96341.00
2018-08-11T03:56:02.865Z,96338.00
2018-08-11T03:56:34.948Z,96339.00
2018-08-11T03:57:06.993Z,96338.00
2018-08-11T03:57:39.071Z,96341.00
2018-08-11T03:58:11.147Z,96338.00
2018-08-11T03:58:43.223Z,96340.00
2018-08-11T03:59:15.292Z,96337.00
2018-08-11T03:59:47.351Z,96341.00
2018-08-11T04:00:19.420Z,96338.00
2018-08-11T04:00:51.489Z,96344.00
2018-08-11T04:01:23.559Z,96343.00
2018-08-11T04:01:55.640Z,96340.00
2018-08-11T04:02:27.705Z,96339.00
2018-08-11T04:02:59.773Z,96341.00
2018-08-11T04:03:31.840Z,96342.00
2018-08-11T04:04:03.898Z,96341.00
2018-08-11T04:04:35.973Z,96344.00
2018-08-11T04:05:08.028Z,96342.00
2018-08-11T04:05:40.079Z,96347.00
2018-08-11T04:06:12.151Z,96345.00
2018-08-11T04:06:44.230Z,96345.00
2018-08-11T04:07:16.304Z,96347.00
2018-08-11T04:07:48.373Z,96346.00
2018-08-11T04:08:20.426Z,96344.00
2018-08-11T04:08:52.491Z,96340.00
2018-08-11T04:09:24.555Z,96340.00
2018-08-11T04:09:56.606Z,96336.00
2018-08-11T04:10:28.679Z,96340.00
2018-08-11T04:11:00.726Z,96344.00
2018-08-11T04:11:32.798Z,96340.00
2018-08-11T04:12:04.895Z,96344.00
2018-08-11T04:12:36.986Z,96351.00
2018-08-11T04:13:09.053Z,96348.00
2018-08-11T04:13:41.125Z,96351.00
2018-08-11T04:14:13.191Z,96351.00
2018-08-11T04:14:45.248Z,96340.00
2018-08-11T04:15:17.309Z,96345.00
2018-08-11T04:15:49.398Z,96351.00
2018-08-11T04:16:21.470Z,96343.00
2018-08-11T04:16:53.512Z,96341.00
2018-08-11T04:17:25.629Z,96344.00
2018-08-11T04:17:57.718Z,96342.00
2018-08-11T04:18:29.792Z,96350.00
2018-08-11T04:19:01.846Z,96354.00
2018-08-11T04:19:33.949Z,96350.00
2018-08-11T04:20:05.995Z,96347.00
2018-08-11T04:20:38.056Z,96354.00
2018-08-11T04:21:10.111Z,96351.00
2018-08-11T04:21:42.182Z,96354.00
2018-08-11T04:22:14.268Z,96353.00
2018-08-11T04:22:46.337Z,96352.00
2018-08-11T04:23:18.495Z,96352.00
2018-08-11T04:23:50.589Z,96352.00
2018-08-11T04:24:22.654Z,96354.00
2018-08-11T04:24:54.800Z,96351.00
2018-08-11T04:25:26.846Z,96347.00
2018-08-11T04:25:58.917Z,96354.00
2018-08-11T04:26:31.033Z,96348.00
2018-08-11T04:27:03.082Z,96349.00
2018-08-11T04:27:35.161Z,96350.00
2018-08-11T04:28:07.237Z,96351.00
2018-08-11T04:28:39.335Z,96352.00
2018-08-11T04:29:11.401Z,96345.00
2018-08-11T04:29:43.464Z,96348.00
2018-08-11T04:30:15.556Z,96347.00
2018-08-11T04:30:47.629Z,96352.00
2018-08-11T04:31:19.684Z,96348.00
2018-08-11T04:31:51.744Z,96349.00
2018-08-11T04:32:23.839Z,96352.00
2018-08-11T04:32:55.894Z,96354.00
2018-08-11T04:33:27.985Z,96351.00
2018-08-11T04:34:00.039Z,96354.00
2018-08-11T04:34:32.118Z,96354.00
2018-08-11T04:35:04.190Z,96351.00
2018-08-11T04:35:36.313Z,96353.00
2018-08-11T04:36:08.340Z,96350.00
2018-08-11T04:36:40.392Z,96352.00
2018-08-11T04:37:12.455Z,96353.00
2018-08-11T04:37:44.517Z,96351.00
2018-08-11T04:38:16.582Z,96349.00
2018-08-11T04:38:48.639Z,96354.00
2018-08-11T04:39:20.698Z,96358.00
2018-08-11T04:39:52.768Z,96355.00
2018-08-11T04:40:24.832Z,96351.00
2018-08-11T04:40:56.892Z,96354.00
2018-08-11T04:41:28.967Z,96355.00
2018-08-11T04:42:01.087Z,96358.00
2018-08-11T04:42:33.099Z,96359.00
2018-08-11T04:43:05.178Z,96360.00
2018-08-11T04:43:37.227Z,96359.00
2018-08-11T04:44:09.297Z,96362.00
2018-08-11T04:44:41.370Z,96361.00
2018-08-11T04:45:13.433Z,96359.00
2018-08-11T04:45:45.586Z,96360.00
2018-08-11T04:46:17.650Z,96360.00
2018-08-11T04:46:49.711Z,96361.00
2018-08-11T04:47:21.867Z,96361.00
2018-08-11T04:47:53.939Z,96364.00
2018-08-11T04:48:26.002Z,96362.00
2018-08-11T04:48:58.066Z,96361.00
2018-08-11T04:49:30.127Z,96365.00
2018-08-11T04:50:02.191Z,96357.00
2018-08-11T04:50:34.280Z,96361.00
2018-08-11T04:51:06.344Z,96362.00
2018-08-11T04:51:38.396Z,96363.00
2018-08-11T04:52:10.481Z,96360.00
2018-08-11T04:52:42.549Z,96360.00
2018-08-11T04:53:14.614Z,96363.00
2018-08-11T04:53:46.679Z,96359.00
2018-08-11T04:54:18.744Z,96365.00
2018-08-11T04:54:50.827Z,96358.00
2018-08-11T04:55:22.894Z,96363.00
2018-08-11T04:55:54.962Z,96364.00
2018-08-11T04:56:27.022Z,96363.00
2018-08-11T04:56:59.200Z,96364.00
2018-08-11T04:57:31.273Z,96365.00
2018-08-11T04:58:03.326Z,96366.00
2018-08-11T04:58:35.457Z,96362.00
2018-08-11T04:59:07.512Z,96369.00
2018-08-11T04:59:39.589Z,96365.00
2018-08-11T05:00:11.653Z,96368.00
2018-08-11T05:00:43.756Z,96369.00
2018-08-11T05:01:15.778Z,96370.00
2018-08-11T05:01:47.825Z,96364.00
2018-08-11T05:02:19.884Z,96368.00
2018-08-11T05:02:51.964Z,96367.00
2018-08-11T05:03:24.016Z,96368.00
2018-08-11T05:03:56.077Z,96372.00
2018-08-11T05:04:28.233Z,96371.00
2018-08-11T05:05:00.298Z,96364.00
2018-08-11T05:05:32.366Z,96365.00
2018-08-11T05:06:04.436Z,96366.00
2018-08-11T05:06:36.499Z,96373.00
2018-08-11T05:07:08.565Z,96365.00
2018-08-11T05:07:40.846Z,96370.00
2018-08-11T05:08:12.897Z,96369.00
2018-08-11T05:08:44.952Z,96370.00
2018-08-11T05:09:17.033Z,96370.00
2018-08-11T05:09:49.077Z,96368.00
2018-08-11T05:10:21.150Z,96370.00
2018-08-11T05:10:53.207Z,96372.00
2018-08-11T05:11:25.270Z,96367.00
2018-08-11T05:11:57.329Z,96371.00
2018-08-11T05:12:29.394Z,96373.00
2018-08-11T05:13:01.491Z,96373.00
2018-08-11T05:13:33.543Z,96373.00
2018-08-11T05:14:05.876Z,96370.00
2018-08-11T05:14:38.233Z,96370.00
2018-08-11T05:15:10.310Z,96364.00
2018-08-11T05:15:42.365Z,96364.00
2018-08-11T05:16:14.437Z,96369.00
2018-08-11T05:16:46.522Z,96366.00
2018-08-11T05:17:18.641Z,96367.00
2018-08-11T05:17:50.677Z,96370.00
2018-08-11T05:18:22.759Z,96368.00
2018-08-11T05:18:54.829Z,96368.00
2018-08-11T05:19:26.884Z,96365.00
2018-08-11T05:19:59.035Z,96364.00
2018-08-11T05:20:31.058Z,96362.00
2018-08-11T05:21:03.123Z,96368.00
2018-08-11T05:21:35.189Z,96365.00
2018-08-11T05:22:07.254Z,96369.00
2018-08-11T05:22:39.415Z,96367.00
2018-08-11T05:23:11.489Z,96369.00
2018-08-11T05:23:43.670Z,96369.00
2018-08-11T05:24:15.742Z,96372.00
2018-08-11T05:24:47.814Z,96369.00
2018-08-11T05:25:19.983Z,96374.00
2018-08-11T05:25:52.038Z,96372.00
2018-08-11T05:26:24.119Z,96369.00
2018-08-11T05:26:56.191Z,96375.00
2018-08-11T05:27:28.248Z,96380.00
2018-08-11T05:28:00.348Z,96377.00
2018-08-11T05:28:32.399Z,96382.00
2018-08-11T05:29:04.549Z,96383.00
2018-08-11T05:29:36.637Z,96387.00
2018-08-11T05:30:08.718Z,96384.00
2018-08-11T05:30:40.829Z,96385.00
2018-08-11T05:31:12.896Z,96386.00
2018-08-11T05:31:44.958Z,96386.00
2018-08-11T05:32:17.036Z,96381.00
2018-08-11T05:32:49.123Z,96386.00
2018-08-11T05:33:21.284Z,96386.00
2018-08-11T05:33:53.350Z,96382.00
2018-08-11T05:34:25.430Z,96391.00
2018-08-11T05:34:57.558Z,96386.00
2018-08-11T05:35:29.658Z,96391.00
2018-08-11T05:36:01.718Z,96388.00
2018-08-11T05:36:34.389Z,96391.00
2018-08-11T05:37:06.447Z,96391.00
2018-08-11T05:37:38.517Z,96391.00
2018-08-11T05:38:10.602Z,96395.00
2018-08-11T05:38:42.677Z,96395.00
2018-08-11T05:39:14.761Z,96395.00
2018-08-11T05:39:46.814Z,96400.00
2018-08-11T05:40:18.885Z,96402.00
2018-08-11T05:40:50.950Z,96398.00
2018-08-11T05:41:23.025Z,96398.00
2018-08-11T05:41:55.112Z,96399.00
2018-08-11T05:42:27.540Z,96400.00
2018-08-11T05:42:59.598Z,96399.00
2018-08-11T05:43:31.662Z,96402.00
2018-08-11T05:44:03.723Z,96395.00
2018-08-11T05:44:35.794Z,96401.00
2018-08-11T05:45:07.855Z,96397.00
2018-08-11T05:45:39.939Z,96401.00
2018-08-11T05:46:12.027Z,96401.00
2018-08-11T05:46:44.079Z,96400.00
2018-08-11T05:47:16.166Z,96401.00
2018-08-11T05:47:48.237Z,96401.00
2018-08-11T05:48:20.354Z,96402.00
2018-08-11T05:48:52.406Z,96400.00
2018-08-11T05:49:24.473Z,96402.00
2018-08-11T05:49:56.530Z,96399.00
2018-08-11T05:50:28.623Z,96400.00
2018-08-11T05:51:00.691Z,96403.00
2018-08-11T05:51:32.767Z,96399.00
2018-08-11T05:52:04.838Z,96399.00
2018-08-11T05:52:36.885Z,96403.00
2018-08-11T05:53:08.972Z,96399.00
2018-08-11T05:53:41.052Z,96399.00
2018-08-11T05:54:13.112Z,96398.00
2018-08-11T05:54:45.177Z,96395.00
2018-08-11T05:55:17.267Z,96395.00
2018-08-11T05:55:49.342Z,96401.00
2018-08-11T05:56:21.854Z,96399.00
2018-08-11T05:56:53.976Z,96398.00
2018-08-11T05:57:26.073Z,96396.00
2018-08-11T05:57:58.144Z,96395.00
2018-08-11T05:58:30.239Z,96397.00
2018-08-11T05:59:02.293Z,96398.00
2018-08-11T05:59:34.368Z,96402.00
2018-08-11T06:00:06.465Z,96397.00
2018-08-11T06:00:38.506Z,96399.00
2018-08-11T06:01:10.577Z,96400.00
2018-08-11T06:01:42.665Z,96402.00
2018-08-11T06:02:14.736Z,96403.00
2018-08-11T06:02:46.835Z,96403.00
2018-08-11T06:03:19.134Z,96404.00
2018-08-11T06:03:51.291Z,96404.00
2018-08-11T06:04:23.356Z,96403.00
2018-08-11T06:04:55.482Z,96405.00
2018-08-11T06:05:27.571Z,96407.00
2018-08-11T06:05:59.637Z,96407.00
2018-08-11T06:06:31.708Z,96407.00
2018-08-11T06:07:03.782Z,96405.00
2018-08-11T06:07:35.866Z,96407.00
2018-08-11T06:08:07.927Z,96410.00
2018-08-11T06:08:40.018Z,96406.00
2018-08-11T06:09:12.091Z,96412.00
2018-08-11T06:09:44.165Z,96407.00
2018-08-11T06:10:16.240Z,96405.00
2018-08-11T06:10:48.305Z,96412.00
2018-08-11T06:11:20.370Z,96410.00
2018-08-11T06:11:52.432Z,96412.00
2018-08-11T06:12:24.497Z,96408.00
2018-08-11T06:12:56.569Z,96413.00
2018-08-11T06:13:28.679Z,96410.00
2018-08-11T06:14:00.740Z,96412.00
2018-08-11T06:14:32.812Z,96413.00
2018-08-11T06:15:04.902Z,96413.00
2018-08-11T06:15:36.959Z,96407.00
2018-08-11T06:16:09.093Z,96411.00
2018-08-11T06:16:41.154Z,96411.00